Time;durP1;ratioP1;P1;durP2;ratioP2;P2;SDS_P1;SDS_P2;PMS_P1;PMS_P2;Temp;Humidity;BMP_temperature;BMP_pressure;BME280_temperature;BME280_humidity;BME280_pressure;Samples;Min_cycle;Max_cycle;Signal;HPM_P1;HPM_P2
2024/01/16 00:00:22;;;;;;;;;61.50;43.50;;;;;3.15;55.85;101011.72;4995344;28;46119;-40
2024/01/16 00:02:48;;;;;;;;;50.00;40.25;;;;;3.09;56.88;101001.59;4995187;28;45377;-40
2024/01/16 00:05:13;;;;;;;;;51.25;44.00;;;;;3.06;56.80;101005.22;4995026;28;45441;-40
2024/01/16 00:07:39;;;;;;;;;51.25;39.00;;;;;3.12;56.58;101019.78;4995545;28;45392;-41
2024/01/16 00:10:07;;;;;;;;;48.25;39.25;;;;;3.08;56.76;101006.00;4995546;28;45353;-39
2024/01/16 00:12:33;;;;;;;;;42.00;38.50;;;;;3.07;56.68;101006.91;4995274;28;45381;-40
2024/01/16 00:14:58;;;;;;;;;41.00;37.00;;;;;3.13;56.72;101008.34;4995389;28;45806;-39
2024/01/16 00:17:23;;;;;;;;;45.50;40.00;;;;;3.02;56.86;100995.84;4995459;28;45460;-40
2024/01/16 00:19:49;;;;;;;;;47.75;38.25;;;;;3.14;56.39;101010.88;4994918;28;45314;-40
2024/01/16 00:22:14;;;;;;;;;47.00;36.00;;;;;3.13;56.36;100997.84;4995189;28;45455;-40
2024/01/16 00:24:40;;;;;;;;;45.00;40.50;;;;;3.13;55.99;100995.22;4995216;28;45443;-40
2024/01/16 00:27:05;;;;;;;;;47.50;36.75;;;;;3.12;56.60;100991.75;4995555;28;45353;-40
2024/01/16 00:29:31;;;;;;;;;49.50;38.00;;;;;3.08;56.53;100999.91;4994975;28;46151;-39
2024/01/16 00:31:56;;;;;;;;;42.75;37.25;;;;;3.07;57.13;101004.28;4994837;28;45384;-40
2024/01/16 00:34:22;;;;;;;;;38.75;32.75;;;;;3.03;57.02;101000.16;4995073;28;45226;-40
2024/01/16 00:36:47;;;;;;;;;49.75;37.50;;;;;3.00;56.43;100998.56;4995222;28;45366;-40
2024/01/16 00:39:13;;;;;;;;;51.50;39.25;;;;;2.99;56.56;101003.91;4994791;28;45633;-39
2024/01/16 00:41:39;;;;;;;;;47.75;43.00;;;;;2.97;56.49;101004.00;4995189;28;45443;-40
2024/01/16 00:44:04;;;;;;;;;47.00;40.75;;;;;2.87;56.60;100986.25;4995008;28;45482;-39
2024/01/16 00:46:30;;;;;;;;;41.75;35.25;;;;;2.95;55.99;101008.53;4995134;28;45405;-39
2024/01/16 00:48:55;;;;;;;;;57.25;40.75;;;;;2.90;56.86;101005.28;4994356;28;46104;-40
2024/01/16 00:51:20;;;;;;;;;39.75;35.75;;;;;2.87;56.75;101002.03;4994846;28;45307;-40
2024/01/16 00:53:46;;;;;;;;;42.75;34.75;;;;;2.83;56.68;100997.88;4994902;28;45385;-38
2024/01/16 00:56:12;;;;;;;;;46.00;30.50;;;;;2.77;56.55;100990.34;4995141;28;45291;-40
2024/01/16 00:58:38;;;;;;;;;56.00;39.25;;;;;2.74;56.97;100996.66;4994758;28;47233;-40
2024/01/16 01:01:03;;;;;;;;;48.00;45.00;;;;;2.66;57.59;100994.47;4994720;28;45310;-38
2024/01/16 01:03:28;;;;;;;;;42.75;36.50;;;;;2.58;57.19;100991.44;4994762;28;45434;-39
2024/01/16 01:05:54;;;;;;;;;47.50;42.00;;;;;2.58;57.82;101003.72;4995000;28;45322;-41
2024/01/16 01:08:19;;;;;;;;;56.00;43.75;;;;;2.51;57.46;100995.34;4994542;28;46609;-40
2024/01/16 01:10:45;;;;;;;;;49.75;41.00;;;;;2.42;57.67;100985.38;4994616;28;45422;-39
2024/01/16 01:13:10;;;;;;;;;50.00;44.25;;;;;2.43;58.25;101002.81;4994529;28;45435;-39
2024/01/16 01:15:35;;;;;;;;;60.25;48.00;;;;;2.39;58.60;100994.28;4993933;28;45325;-40
2024/01/16 01:18:01;;;;;;;;;60.75;48.00;;;;;2.39;58.28;100986.41;4994344;28;45367;-40
2024/01/16 01:20:26;;;;;;;;;63.50;46.00;;;;;2.38;58.20;100979.47;4994272;28;45492;-39
2024/01/16 01:22:52;;;;;;;;;68.75;49.75;;;;;2.31;58.69;100959.75;4994790;28;45402;-40
2024/01/16 01:25:17;;;;;;;;;66.25;48.75;;;;;2.39;57.71;100975.91;4994636;28;45264;-40
2024/01/16 01:27:42;;;;;;;;;65.50;52.25;;;;;2.34;58.79;100975.31;4994065;28;48715;-42
2024/01/16 01:30:11;;;;;;;;;68.50;51.00;;;;;2.34;59.09;100995.47;4994609;28;45285;-39
2024/01/16 01:32:38;;;;;;;;;66.50;53.75;;;;;2.27;59.40;100994.13;4994577;28;45432;-41
2024/01/16 01:35:04;;;;;;;;;73.50;52.00;;;;;2.24;59.73;100997.78;4994581;28;45369;-40
2024/01/16 01:37:29;;;;;;;;;50.75;44.00;;;;;2.24;59.09;100995.16;4994178;28;46044;-38
2024/01/16 01:39:55;;;;;;;;;79.25;57.25;;;;;2.23;59.48;100990.84;4994251;28;45287;-40
2024/01/16 01:42:20;;;;;;;;;69.50;54.00;;;;;2.24;59.22;101001.25;5079476;27;45320;-39
2024/01/16 01:44:45;;;;;;;;;74.75;57.50;;;;;2.09;59.32;100986.38;4994340;28;45473;-39
2024/01/16 01:47:11;;;;;;;;;73.00;56.75;;;;;2.14;59.66;101001.84;4993948;28;46135;-39
2024/01/16 01:49:37;;;;;;;;;75.25;58.50;;;;;2.12;60.22;101015.06;4993774;28;45302;-41
2024/01/16 01:52:04;;;;;;;;;74.00;56.00;;;;;2.10;60.16;101019.53;4994025;28;45248;-41
2024/01/16 01:54:33;;;;;;;;;73.00;54.25;;;;;2.11;60.18;101023.03;4994358;28;45521;-41
2024/01/16 01:56:59;;;;;;;;;77.25;56.50;;;;;2.08;60.48;101028.44;4993910;28;46738;-38
2024/01/16 01:59:24;;;;;;;;;78.75;57.00;;;;;2.03;60.59;101012.97;4994116;28;45418;-40
2024/01/16 02:01:54;;;;;;;;;61.75;51.00;;;;;2.14;60.11;101014.97;4993950;28;45401;-40
2024/01/16 02:04:21;;;;;;;;;75.00;57.50;;;;;2.17;59.60;101023.53;4994011;28;45535;-40
2024/01/16 02:06:46;;;;;;;;;73.75;55.25;;;;;2.15;60.01;101014.03;4993796;28;45364;-40
2024/01/16 02:09:13;;;;;;;;;75.50;53.50;;;;;2.11;59.96;101008.13;4993579;28;45408;-40
2024/01/16 02:11:42;;;;;;;;;75.50;58.75;;;;;2.14;60.30;101013.19;4994200;28;45416;-40
2024/01/16 02:14:08;;;;;;;;;80.50;58.75;;;;;2.12;59.82;101011.59;4994034;28;45366;-40
2024/01/16 02:16:39;;;;;;;;;77.00;57.00;;;;;2.09;59.90;101006.53;4993561;28;46321;-40
2024/01/16 02:19:06;;;;;;;;;81.25;62.50;;;;;2.07;60.12;101013.66;4993460;28;45413;-40
2024/01/16 02:21:47;;;;;;;;;74.00;58.00;;;;;2.02;60.68;101008.63;4993719;28;45468;-40
2024/01/16 02:24:13;;;;;;;;;79.25;60.75;;;;;1.96;60.83;101001.13;4993687;28;45334;-41
2024/01/16 02:26:39;;;;;;;;;81.00;62.25;;;;;1.95;60.99;100991.56;4993392;28;46351;-41
2024/01/16 02:29:05;;;;;;;;;83.25;63.00;;;;;1.97;60.86;100998.41;4993795;28;45369;-38
2024/01/16 02:31:31;;;;;;;;;81.25;59.25;;;;;1.93;60.27;100996.03;4993590;28;45361;-40
2024/01/16 02:33:56;;;;;;;;;79.00;61.00;;;;;1.92;60.78;100996.97;4993554;28;45551;-40
2024/01/16 02:36:22;;;;;;;;;80.00;60.50;;;;;1.90;60.28;100998.84;4993278;28;45404;-40
2024/01/16 02:38:47;;;;;;;;;86.00;65.33;;;;;1.84;61.07;100986.06;4992099;28;45217;-40
2024/01/16 02:41:16;;;;;;;;;86.33;64.33;;;;;1.83;60.83;100995.69;4993495;28;45337;-39
2024/01/16 02:43:42;;;;;;;;;86.33;66.00;;;;;1.63;60.75;100962.69;4993667;28;45390;-40
2024/01/16 02:46:08;;;;;;;;;84.00;60.33;;;;;1.78;61.68;100978.53;4991868;28;48182;-39
2024/01/16 02:48:34;;;;;;;;;25.00;7.67;;;;;1.71;61.58;100965.75;4993275;28;45557;-40
2024/01/16 02:51:00;;;;;;;;;81.67;59.67;;;;;1.78;60.82;100974.13;4993439;28;45350;-40
2024/01/16 02:53:25;;;;;;;;;90.00;63.33;;;;;1.75;60.79;100969.88;4993565;28;45540;-40
2024/01/16 02:55:51;;;;;;;;;87.33;66.00;;;;;1.71;61.97;100965.75;4993191;28;45624;-39
2024/01/16 02:58:17;;;;;;;;;78.25;60.00;;;;;1.59;61.00;100953.31;4993024;28;45450;-40
2024/01/16 03:00:42;;;;;;;;;89.67;66.00;;;;;1.67;61.29;100968.63;4993248;28;45366;-39
2024/01/16 03:03:08;;;;;;;;;91.00;66.67;;;;;1.63;62.13;100962.69;4993445;28;45318;-39
2024/01/16 03:05:34;;;;;;;;;87.00;64.67;;;;;1.58;61.90;100956.03;4992791;28;45365;-39
2024/01/16 03:08:00;;;;;;;;;83.67;64.00;;;;;1.57;62.15;100955.19;5008089;28;45404;-39
2024/01/16 03:10:26;;;;;;;;;87.67;65.67;;;;;1.55;62.32;100961.41;4992883;28;45477;-38
2024/01/16 03:12:51;;;;;;;;;88.67;63.00;;;;;1.50;61.15;100952.03;4993070;28;45419;-39
2024/01/16 03:15:17;;;;;;;;;86.33;67.67;;;;;1.50;62.08;100957.28;4992850;28;45689;-39
2024/01/16 03:17:42;;;;;;;;;88.00;64.33;;;;;1.51;61.59;100955.50;4992970;28;45421;-38
2024/01/16 03:20:08;;;;;;;;;92.67;70.00;;;;;1.49;61.76;100952.97;4992961;28;45366;-39
2024/01/16 03:22:34;;;;;;;;;89.67;66.00;;;;;1.50;61.20;100948.56;4992920;28;45471;-39
2024/01/16 03:25:00;;;;;;;;;93.33;69.33;;;;;1.38;62.47;100938.75;4992668;28;46377;-39
2024/01/16 03:27:25;;;;;;;;;93.00;69.67;;;;;1.33;62.39;100943.41;4992555;28;45408;-38
2024/01/16 03:29:52;;;;;;;;;92.33;69.00;;;;;1.35;62.94;100955.50;4992785;28;45342;-39
2024/01/16 03:32:17;;;;;;;;;97.67;69.67;;;;;1.31;62.72;100951.34;4992944;28;45361;-39
2024/01/16 03:34:42;;;;;;;;;93.67;70.00;;;;;1.31;62.33;100958.38;4992258;28;46259;-37
2024/01/16 03:37:08;;;;;;;;;99.00;76.00;;;;;1.27;63.52;100957.69;4992856;28;45982;-39
2024/01/16 03:39:33;;;;;;;;;100.33;73.00;;;;;1.27;63.97;100956.84;4992576;28;45342;-38
2024/01/16 03:41:59;;;;;;;;;96.00;73.67;;;;;1.24;63.33;100948.19;4995891;28;45578;-39
2024/01/16 03:44:24;;;;;;;;;97.67;73.33;;;;;1.22;63.65;100946.56;4995259;28;47105;-39
2024/01/16 03:46:49;;;;;;;;;98.33;73.67;;;;;1.23;62.72;100946.50;4995393;28;45975;-40
2024/01/16 03:49:15;;;;;;;;;99.00;72.67;;;;;1.24;63.59;100936.88;4995176;28;47096;-40
2024/01/16 03:51:44;;;;;;;;;92.67;72.33;;;;;1.24;63.57;100947.34;4995801;28;45440;-38
2024/01/16 03:54:09;;;;;;;;;99.33;73.00;;;;;1.20;63.62;100945.81;4995561;28;45425;-43
2024/01/16 03:56:35;;;;;;;;;91.67;67.67;;;;;1.08;63.95;100931.59;4995205;28;45400;-39
2024/01/16 03:59:00;;;;;;;;;96.33;72.00;;;;;1.20;63.65;100951.06;4995872;28;45413;-40
2024/01/16 04:01:37;;;;;;;;;82.33;57.67;;;;;1.23;62.97;100940.44;4996133;28;45408;-40
2024/01/16 04:04:06;;;;;;;;;100.33;72.33;;;;;1.27;62.46;100941.97;4995624;28;45261;-39
2024/01/16 04:06:32;;;;;;;;;96.33;70.33;;;;;1.15;63.38;100932.97;4995307;28;45399;-39
2024/01/16 04:08:58;;;;;;;;;94.67;75.33;;;;;1.19;63.27;100937.13;4995361;28;45448;-38
2024/01/16 04:11:23;;;;;;;;;99.00;75.00;;;;;1.14;63.27;100931.28;4995519;28;45408;-38
2024/01/16 04:13:49;;;;;;;;;98.33;72.33;;;;;0.94;63.36;100895.66;4995199;28;47149;-39
2024/01/16 04:16:15;;;;;;;;;96.33;71.33;;;;;1.16;63.93;100941.69;4995123;28;45277;-38
2024/01/16 04:18:42;;;;;;;;;102.33;76.67;;;;;1.09;63.98;100943.75;4995185;28;45370;-39
2024/01/16 04:21:07;;;;;;;;;96.67;73.67;;;;;1.09;63.84;100935.91;4995368;28;45563;-39
2024/01/16 04:23:33;;;;;;;;;92.33;69.67;;;;;1.11;63.20;100933.22;4994905;28;45429;-39
2024/01/16 04:25:59;;;;;;;;;89.33;68.33;;;;;1.15;63.40;100929.50;4995015;28;45417;-38
2024/01/16 04:28:24;;;;;;;;;102.00;75.67;;;;;1.18;63.18;100924.97;4995183;28;45316;-39
2024/01/16 04:30:49;;;;;;;;;97.67;72.00;;;;;1.18;63.53;100924.09;4995261;28;45350;-39
2024/01/16 04:33:15;;;;;;;;;93.00;72.00;;;;;1.15;63.32;100925.13;4994767;28;46417;-37
2024/01/16 04:35:40;;;;;;;;;98.67;71.33;;;;;1.11;63.36;100905.25;4994879;28;46227;-39
2024/01/16 04:38:05;;;;;;;;;93.33;72.00;;;;;1.16;62.87;100905.00;4995249;28;45271;-39
2024/01/16 04:40:31;;;;;;;;;102.00;72.00;;;;;1.09;63.08;100904.47;4995128;28;45383;-39
2024/01/16 04:42:56;;;;;;;;;87.00;66.00;;;;;1.14;63.41;100912.09;4994922;28;45330;-40
2024/01/16 04:45:21;;;;;;;;;95.33;72.00;;;;;1.13;62.91;100907.78;4994880;28;45177;-39
2024/01/16 04:47:47;;;;;;;;;91.67;70.67;;;;;1.11;63.45;100910.47;4994652;28;45346;-39
2024/01/16 04:50:12;;;;;;;;;97.67;70.00;;;;;1.09;63.35;100907.09;4994572;28;45274;-39
2024/01/16 04:52:37;;;;;;;;;100.00;69.00;;;;;1.10;63.16;100902.72;4993978;28;46302;-39
2024/01/16 04:55:03;;;;;;;;;96.33;69.00;;;;;1.10;62.88;100898.31;4994266;28;45514;-38
2024/01/16 04:57:29;;;;;;;;;98.67;71.67;;;;;1.09;62.82;100899.22;4994830;28;45354;-38
2024/01/16 04:59:54;;;;;;;;;99.33;71.67;;;;;1.07;63.25;100887.16;4995069;28;45409;-39
2024/01/16 05:02:20;;;;;;;;;94.33;70.33;;;;;1.04;63.30;100893.38;4994407;28;45468;-39
2024/01/16 05:04:49;;;;;;;;;93.67;71.33;;;;;0.94;63.71;100890.44;5079245;27;45789;-38
2024/01/16 05:07:14;;;;;;;;;100.00;72.00;;;;;0.85;63.68;100883.06;4994639;28;45291;-38
2024/01/16 05:09:40;;;;;;;;;94.33;70.00;;;;;0.83;63.42;100877.03;4996224;28;45333;-40
2024/01/16 05:12:05;;;;;;;;;104.00;72.33;;;;;0.78;64.38;100871.22;4994324;28;46586;-39
2024/01/16 05:14:30;;;;;;;;;93.00;72.67;;;;;0.74;64.33;100867.91;4994484;28;45219;-41
2024/01/16 05:16:56;;;;;;;;;101.67;74.00;;;;;0.74;64.09;100872.31;4994428;28;45215;-39
2024/01/16 05:19:21;;;;;;;;;102.33;79.00;;;;;0.68;64.31;100857.78;4995808;28;45977;-39
2024/01/16 05:21:46;;;;;;;;;99.67;68.67;;;;;0.64;63.75;100851.00;4994241;28;45340;-40
2024/01/16 05:24:12;;;;;;;;;100.67;73.33;;;;;0.68;64.73;100862.16;4992925;28;45467;-39
2024/01/16 05:26:37;;;;;;;;;94.67;69.33;;;;;0.64;64.75;100858.84;4994477;28;45367;-38
2024/01/16 05:29:02;;;;;;;;;95.67;74.67;;;;;0.60;64.85;100856.47;4994584;28;45404;-40
2024/01/16 05:31:28;;;;;;;;;101.33;71.67;;;;;0.64;65.19;100853.63;4993975;28;45480;-39
2024/01/16 05:33:53;;;;;;;;;98.67;72.67;;;;;0.62;64.92;100846.75;4994521;28;45393;-39
2024/01/16 05:36:18;;;;;;;;;96.33;72.67;;;;;0.64;64.57;100858.84;4994377;28;45432;-38
2024/01/16 05:38:44;;;;;;;;;99.33;75.33;;;;;0.66;64.97;100858.75;4994347;28;45397;-38
2024/01/16 05:41:09;;;;;;;;;87.00;68.33;;;;;0.68;64.97;100860.38;4994253;28;45460;-39
2024/01/16 05:43:34;;;;;;;;;89.67;66.33;;;;;0.64;65.33;100856.25;4993964;28;45301;-40
2024/01/16 05:46:00;;;;;;;;;99.33;74.33;;;;;0.58;64.14;100853.94;4994123;28;45886;-39
2024/01/16 05:48:26;;;;;;;;;92.33;69.00;;;;;0.62;64.50;100859.84;4994173;28;45348;-40
2024/01/16 05:50:51;;;;;;;;;77.33;62.33;;;;;0.65;63.98;100854.47;4993921;28;46062;-39
2024/01/16 05:53:16;;;;;;;;;92.33;68.00;;;;;0.57;64.22;100831.31;4994136;28;45349;-39
2024/01/16 05:55:42;;;;;;;;;95.33;71.33;;;;;0.63;64.27;100843.22;4994188;28;45357;-37
2024/01/16 05:58:07;;;;;;;;;88.00;68.33;;;;;0.65;64.43;100844.84;4994075;28;45495;-40
2024/01/16 06:00:34;;;;;;;;;94.33;71.33;;;;;0.53;64.33;100821.06;4993642;28;45416;-39
2024/01/16 06:02:59;;;;;;;;;92.67;67.33;;;;;0.55;65.17;100835.78;4992171;28;45531;-40
2024/01/16 06:05:25;;;;;;;;;91.00;66.33;;;;;0.56;65.38;100845.31;4993667;28;45165;-40
2024/01/16 06:07:50;;;;;;;;;96.00;70.67;;;;;0.54;64.47;100831.44;5009222;28;45293;-39
2024/01/16 06:10:15;;;;;;;;;97.33;73.67;;;;;0.58;65.47;100834.75;4993784;28;45344;-39
2024/01/16 06:12:41;;;;;;;;;98.33;71.33;;;;;0.52;65.56;100828.09;4993724;28;45432;-39
2024/01/16 06:15:07;;;;;;;;;99.00;73.00;;;;;0.55;65.33;100829.69;4994118;28;45465;-39
2024/01/16 06:17:32;;;;;;;;;93.00;66.67;;;;;0.55;64.40;100832.28;4993845;28;45290;-38
2024/01/16 06:19:57;;;;;;;;;93.00;70.33;;;;;0.55;65.00;100830.56;4993466;28;47311;-39
2024/01/16 06:22:23;;;;;;;;;91.67;69.00;;;;;0.54;63.94;100831.44;4993373;28;45389;-38
2024/01/16 06:24:48;;;;;;;;;99.33;77.33;;;;;0.55;64.99;100838.41;4993188;28;45407;-39
2024/01/16 06:27:18;;;;;;;;;99.67;71.33;;;;;0.53;64.99;100828.94;4993773;28;45366;-38
2024/01/16 06:29:45;;;;;;;;;104.33;74.67;;;;;0.55;65.32;100842.75;4993266;28;46263;-40
2024/01/16 06:32:10;;;;;;;;;104.33;76.00;;;;;0.54;64.76;100828.84;4993673;28;45415;-37
2024/01/16 06:34:35;;;;;;;;;87.00;64.67;;;;;0.56;64.56;100840.09;4993609;28;45425;-39
2024/01/16 06:37:01;;;;;;;;;96.00;73.00;;;;;0.54;65.27;100834.06;4993703;28;45385;-40
2024/01/16 06:39:26;;;;;;;;;100.33;74.33;;;;;0.52;65.91;100838.56;4993480;28;45657;-37
2024/01/16 06:41:51;;;;;;;;;96.33;75.33;;;;;0.47;65.21;100833.56;4993294;28;45365;-39
2024/01/16 06:44:18;;;;;;;;;103.67;73.67;;;;;0.38;66.47;100833.16;4993435;28;45336;-39
2024/01/16 06:46:43;;;;;;;;;92.33;68.33;;;;;0.40;65.97;100840.03;4993740;28;45465;-38
2024/01/16 06:49:08;;;;;;;;;90.33;68.33;;;;;0.36;65.52;100841.13;4993239;28;46554;-40
2024/01/16 06:51:34;;;;;;;;;93.33;70.67;;;;;0.44;66.17;100849.41;4993042;28;45395;-39
2024/01/16 06:53:59;;;;;;;;;95.33;69.67;;;;;0.44;66.16;100849.41;4993099;28;45420;-40
2024/01/16 06:56:24;;;;;;;;;90.33;65.33;;;;;0.47;65.84;100851.03;4993127;28;45493;-40
2024/01/16 06:58:51;;;;;;;;;106.33;76.67;;;;;0.22;66.41;100807.81;4992657;28;52527;-39
2024/01/16 07:01:16;;;;;;;;;103.00;73.33;;;;;0.44;66.55;100838.09;4992835;28;45367;-41
2024/01/16 07:03:41;;;;;;;;;89.67;69.33;;;;;0.48;66.53;100842.25;4993178;28;45469;-39
2024/01/16 07:06:07;;;;;;;;;85.33;64.67;;;;;0.53;65.99;100844.63;4992887;28;45773;-39
2024/01/16 07:08:32;;;;;;;;;93.00;69.67;;;;;0.58;65.72;100850.47;4992477;28;45582;-40
2024/01/16 07:10:58;;;;;;;;;91.67;66.33;;;;;0.56;65.54;100840.09;4992990;28;45309;-40
2024/01/16 07:13:23;;;;;;;;;81.67;61.00;;;;;0.58;65.36;100838.22;4992937;28;45436;-39
2024/01/16 07:15:49;;;;;;;;;90.00;68.33;;;;;0.63;65.26;100843.22;4995846;28;45330;-40
2024/01/16 07:18:14;;;;;;;;;87.00;66.00;;;;;0.62;65.83;100855.47;4995691;28;45933;-39
2024/01/16 07:20:39;;;;;;;;;95.33;72.33;;;;;0.50;66.29;100833.38;4995954;28;45283;-40
2024/01/16 07:23:05;;;;;;;;;103.67;76.67;;;;;0.65;66.79;100855.31;4995658;28;45300;-39
2024/01/16 07:25:30;;;;;;;;;94.67;70.33;;;;;0.64;66.25;100851.00;4995794;28;45325;-39
2024/01/16 07:27:56;;;;;;;;;96.00;72.00;;;;;0.59;66.92;100842.56;4995388;28;46598;-38
2024/01/16 07:30:21;;;;;;;;;100.33;76.67;;;;;0.70;66.99;100855.06;4995272;27;45440;-38
2024/01/16 07:32:47;;;;;;;;;99.67;71.00;;;;;0.57;66.04;100828.69;4995549;28;45363;-39
2024/01/16 07:35:12;;;;;;;;;100.00;76.00;;;;;0.78;66.54;100849.44;4995449;28;45469;-39
2024/01/16 07:37:37;;;;;;;;;107.33;75.00;;;;;0.81;65.89;100847.50;4994403;28;47132;-39
2024/01/16 07:40:05;;;;;;;;;105.33;73.00;;;;;0.79;65.87;100848.50;4993846;28;45420;-37
2024/01/16 07:42:34;;;;;;;;;95.67;72.33;;;;;0.73;66.68;100852.28;4993826;28;45487;-38
2024/01/16 07:45:00;;;;;;;;;97.00;70.00;;;;;0.74;66.53;100846.13;4993690;28;45561;-39
2024/01/16 07:47:25;;;;;;;;;96.67;73.33;;;;;0.77;65.76;100835.50;4993468;27;45567;-38
2024/01/16 07:49:50;;;;;;;;;102.33;76.67;;;;;0.77;65.66;100838.09;4993507;28;47413;-38
2024/01/16 07:52:16;;;;;;;;;96.67;71.33;;;;;0.84;65.34;100836.84;4993642;28;45488;-39
2024/01/16 07:54:41;;;;;;;;;99.33;74.33;;;;;0.82;65.78;100845.72;4994245;28;45346;-39
2024/01/16 07:57:06;;;;;;;;;99.67;76.67;;;;;0.81;65.65;100851.88;4993543;28;46534;-39
2024/01/16 07:59:32;;;;;;;;;100.67;76.67;;;;;0.81;65.73;100859.75;5008094;28;45481;-40
2024/01/16 08:01:57;;;;;;;;;103.00;73.00;;;;;0.82;66.05;100856.19;4993524;28;45445;-39
2024/01/16 08:04:23;;;;;;;;;97.00;72.00;;;;;0.84;65.68;100851.69;5008858;28;45395;-39
2024/01/16 08:06:48;;;;;;;;;105.67;75.67;;;;;0.85;66.14;100850.78;4992822;28;45489;-39
2024/01/16 08:09:14;;;;;;;;;90.67;68.33;;;;;0.78;66.26;100859.91;4993214;28;45490;-38
2024/01/16 08:11:39;;;;;;;;;81.67;65.67;;;;;0.87;65.40;100864.63;4993928;28;45452;-37
2024/01/16 08:14:05;;;;;;;;;105.33;78.33;;;;;0.92;65.50;100860.84;4993636;28;45440;-37
2024/01/16 08:16:30;;;;;;;;;96.00;72.33;;;;;0.96;65.81;100861.53;4992977;28;45461;-39
2024/01/16 08:18:56;;;;;;;;;87.00;66.67;;;;;0.93;65.71;100846.00;4993325;28;45378;-39
2024/01/16 08:21:21;;;;;;;;;86.00;64.67;;;;;0.85;65.17;100830.69;4993027;28;45459;-39
2024/01/16 08:23:47;;;;;;;;;96.00;73.67;;;;;0.90;65.77;100852.22;4993066;28;45421;-38
2024/01/16 08:26:12;;;;;;;;;108.67;82.00;;;;;0.90;66.04;100859.25;4992549;28;46472;-39
2024/01/16 08:28:37;;;;;;;;;110.00;79.00;;;;;0.91;65.49;100855.69;4993129;28;45573;-39
2024/01/16 08:31:04;;;;;;;;;89.00;66.00;;;;;0.97;65.19;100853.59;5078112;27;45445;-44
2024/01/16 08:33:29;;;;;;;;;106.67;78.33;;;;;1.08;65.37;100863.47;4993035;28;45409;-39
2024/01/16 08:35:54;;;;;;;;;104.00;77.33;;;;;1.18;65.26;100875.19;4992974;28;48625;-38
2024/01/16 08:38:20;;;;;;;;;92.67;69.67;;;;;1.24;64.51;100871.38;4992836;28;45529;-38
2024/01/16 08:40:45;;;;;;;;;103.33;75.67;;;;;1.34;64.84;100876.94;4992921;28;45392;-39
2024/01/16 08:43:10;;;;;;;;;103.67;76.00;;;;;1.35;64.75;100870.75;4993237;28;45430;-37
2024/01/16 08:45:36;;;;;;;;;105.00;77.33;;;;;1.42;63.99;100878.19;4992564;28;47484;-38
2024/01/16 08:48:01;;;;;;;;;103.33;77.33;;;;;1.46;64.06;100871.84;4992496;28;45415;-38
2024/01/16 08:50:26;;;;;;;;;105.00;75.00;;;;;1.43;63.95;100864.19;4992858;28;45469;-38
2024/01/16 08:52:52;;;;;;;;;94.67;69.33;;;;;1.47;64.01;100860.44;4992913;28;45596;-38
2024/01/16 08:55:17;;;;;;;;;91.67;72.00;;;;;1.48;63.85;100856.06;4992848;28;46328;-38
2024/01/16 08:57:42;;;;;;;;;93.00;70.67;;;;;1.58;63.67;100844.13;4992504;27;45564;-39
2024/01/16 09:00:08;;;;;;;;;96.67;69.33;;;;;1.66;63.88;100849.78;4993090;28;45429;-39
2024/01/16 09:02:35;;;;;;;;;97.00;73.00;;;;;1.67;63.40;100851.47;4993028;28;45570;-39
2024/01/16 09:05:00;;;;;;;;;93.67;69.33;;;;;1.68;63.23;100850.50;4992644;28;46352;-39
2024/01/16 09:07:26;;;;;;;;;91.00;70.00;;;;;1.72;63.69;100851.19;4992359;28;45558;-39
2024/01/16 09:09:52;;;;;;;;;96.67;71.67;;;;;1.60;63.14;100839.66;4992807;28;45453;-38
2024/01/16 09:12:17;;;;;;;;;102.00;76.00;;;;;1.29;63.08;100782.00;4993099;28;46442;-37
2024/01/16 09:14:43;;;;;;;;;105.00;78.00;;;;;1.64;62.80;100854.25;4992445;28;46429;-37
2024/01/16 09:17:08;;;;;;;;;100.00;75.33;;;;;1.56;62.97;100851.25;4992829;28;45318;-39
2024/01/16 09:19:33;;;;;;;;;108.67;78.33;;;;;1.39;63.43;100823.34;4992534;28;45470;-39
2024/01/16 09:21:59;;;;;;;;;93.33;68.33;;;;;1.46;63.05;100844.81;4992860;28;45401;-39
2024/01/16 09:24:24;;;;;;;;;98.33;74.33;;;;;1.49;63.43;100847.25;4992069;28;46070;-38
2024/01/16 09:26:50;;;;;;;;;106.00;75.00;;;;;1.56;63.59;100848.63;4991151;28;45456;-37
2024/01/16 09:29:16;;;;;;;;;107.33;78.33;;;;;1.85;63.47;100856.59;4992789;28;45394;-39
2024/01/16 09:31:41;;;;;;;;;55.67;27.33;;;;;3.16;61.55;100848.66;4992442;28;45456;-38
2024/01/16 09:34:07;;;;;;;;;106.00;78.67;;;;;4.66;58.05;100836.06;4991024;28;47170;-39
2024/01/16 09:36:35;;;;;;;;;105.00;81.33;;;;;5.83;55.96;100830.34;4991807;28;45331;-38
2024/01/16 09:39:01;;;;;;;;;100.67;77.33;;;;;6.92;53.36;100823.72;4991825;28;45633;-37
2024/01/16 09:41:26;;;;;;;;;95.00;74.00;;;;;7.68;50.74;100803.47;4996250;28;45888;-39
2024/01/16 09:43:51;;;;;;;;;85.00;70.33;;;;;8.73;48.88;100816.72;4991656;28;46019;-39
2024/01/16 09:46:19;;;;;;;;;99.67;72.67;;;;;9.50;46.90;100810.78;4990776;28;45465;-39
2024/01/16 09:48:45;;;;;;;;;94.00;68.33;;;;;10.36;45.04;100795.78;4991980;28;45467;-39
2024/01/16 09:51:14;;;;;;;;;93.00;70.00;;;;;11.03;44.29;100785.00;4992377;28;45420;-39
2024/01/16 09:53:41;;;;;;;;;93.50;73.50;;;;;11.58;41.61;100777.75;4991778;28;45600;-39
2024/01/16 09:56:14;;;;;;;;;86.75;67.75;;;;;12.06;42.74;100781.88;4991764;28;45457;-39
2024/01/16 09:58:40;;;;;;;;;90.00;66.75;;;;;12.62;40.48;100771.72;4992334;28;45426;-39
2024/01/16 10:01:06;;;;;;;;;88.50;71.00;;;;;13.17;42.27;100776.59;4992132;28;45572;-38
2024/01/16 10:03:35;;;;;;;;;91.75;68.25;;;;;13.65;41.36;100786.59;4991991;28;47083;-40
2024/01/16 10:06:07;;;;;;;;;89.75;69.25;;;;;14.01;38.95;100785.41;4991649;28;45432;-39
2024/01/16 10:08:33;;;;;;;;;75.75;58.25;;;;;14.22;38.84;100762.47;4991926;28;45444;-39
2024/01/16 10:10:59;;;;;;;;;77.75;60.25;;;;;14.41;38.53;100742.56;4992281;28;45883;-40
2024/01/16 10:13:26;;;;;;;;;79.25;61.25;;;;;14.88;35.20;100781.09;4991540;28;47344;-38
2024/01/16 10:15:52;;;;;;;;;81.75;60.25;;;;;15.12;33.93;100786.31;4991405;28;45412;-43
2024/01/16 10:18:24;;;;;;;;;75.50;57.75;;;;;15.42;35.59;100783.78;4991766;28;45527;-40
2024/01/16 10:20:50;;;;;;;;;83.25;62.00;;;;;15.75;33.95;100768.34;4992039;28;45414;-40
2024/01/16 10:23:34;;;;;;;;;83.25;61.25;;;;;15.98;34.40;100775.53;5076221;27;45512;-38
2024/01/16 10:26:10;;;;;;;;;77.50;60.75;;;;;16.29;36.87;100778.09;4991969;28;45518;-39
2024/01/16 10:28:38;;;;;;;;;85.50;65.75;;;;;16.20;34.32;100769.28;4991773;28;45390;-38
2024/01/16 10:31:04;;;;;;;;;77.25;60.00;;;;;15.94;32.55;100762.50;4991805;28;45448;-39
2024/01/16 10:33:30;;;;;;;;;77.00;56.50;;;;;16.01;35.70;100767.13;4991222;28;45405;-39
2024/01/16 10:36:12;;;;;;;;;74.25;58.50;;;;;15.91;32.57;100752.09;4993755;28;45496;-40
2024/01/16 10:38:39;;;;;;;;;71.75;58.50;;;;;15.80;32.48;100770.47;4992946;28;45390;-38
2024/01/16 10:41:13;;;;;;;;;71.50;55.00;;;;;15.54;32.71;100762.78;4992454;28;45338;-40
2024/01/16 10:43:39;;;;;;;;;67.75;53.25;;;;;14.80;33.60;100763.19;4992360;28;45533;-40
2024/01/16 10:46:17;;;;;;;;;69.25;53.25;;;;;14.02;35.57;100755.81;4991172;28;45518;-40
2024/01/16 10:49:02;;;;;;;;;71.75;50.75;;;;;12.96;37.57;100761.84;4993018;28;45349;-40
2024/01/16 10:51:29;;;;;;;;;64.00;50.50;;;;;12.32;36.38;100760.53;4996501;28;45406;-39
2024/01/16 10:53:59;;;;;;;;;73.00;55.25;;;;;12.46;36.79;100772.47;4995453;28;46380;-39
2024/01/16 10:56:27;;;;;;;;;63.50;48.50;;;;;13.47;35.14;100753.81;4995875;28;45355;-39
2024/01/16 10:59:12;;;;;;;;;66.00;49.50;;;;;14.00;33.50;100752.50;4996083;28;45335;-38
2024/01/16 11:01:39;;;;;;;;;69.50;53.75;;;;;14.56;33.17;100729.31;4995881;28;45458;-39
2024/01/16 11:04:05;;;;;;;;;61.50;50.25;;;;;14.90;32.18;100742.38;4995737;28;46329;-40
2024/01/16 11:06:32;;;;;;;;;60.75;49.25;;;;;14.30;32.55;100734.06;4995717;28;45488;-38
2024/01/16 11:08:58;;;;;;;;;67.25;50.00;;;;;13.52;34.70;100738.09;4995187;28;45361;-40